sensor_id;sensor_type;location;lat;lon;timestamp;P1;durP1;ratioP1;P2;durP2;ratioP2
65717;SDS011;52445;52.466;-1.016;2023-12-22T00:00:23;7.43;;;2.05;;
65717;SDS011;52445;52.466;-1.016;2023-12-22T00:02:49;10.48;;;1.83;;
65717;SDS011;52445;52.466;-1.016;2023-12-22T00:05:16;7.05;;;1.52;;
65717;SDS011;52445;52.466;-1.016;2023-12-22T00:07:43;13.68;;;2.33;;
65717;SDS011;52445;52.466;-1.016;2023-12-22T00:10:10;14.32;;;1.85;;
65717;SDS011;52445;52.466;-1.016;2023-12-22T00:12:36;9.18;;;1.58;;
65717;SDS011;52445;52.466;-1.016;2023-12-22T00:15:05;5.25;;;1.13;;
65717;SDS011;52445;52.466;-1.016;2023-12-22T00:17:32;7.03;;;1.27;;
65717;SDS011;52445;52.466;-1.016;2023-12-22T00:19:58;9.85;;;1.65;;
65717;SDS011;52445;52.466;-1.016;2023-12-22T00:22:29;10.38;;;1.27;;
65717;SDS011;52445;52.466;-1.016;2023-12-22T00:24:56;4.28;;;1.40;;
65717;SDS011;52445;52.466;-1.016;2023-12-22T00:27:23;7.45;;;1.33;;
65717;SDS011;52445;52.466;-1.016;2023-12-22T00:29:50;6.95;;;1.75;;
65717;SDS011;52445;52.466;-1.016;2023-12-22T00:32:16;11.25;;;1.58;;
65717;SDS011;52445;52.466;-1.016;2023-12-22T00:34:43;5.93;;;0.95;;
65717;SDS011;52445;52.466;-1.016;2023-12-22T00:37:13;9.13;;;1.52;;
65717;SDS011;52445;52.466;-1.016;2023-12-22T00:39:40;6.57;;;1.50;;
65717;SDS011;52445;52.466;-1.016;2023-12-22T00:42:07;9.57;;;1.00;;
65717;SDS011;52445;52.466;-1.016;2023-12-22T00:44:34;7.68;;;1.30;;
65717;SDS011;52445;52.466;-1.016;2023-12-22T00:47:01;6.15;;;1.25;;
65717;SDS011;52445;52.466;-1.016;2023-12-22T00:49:29;10.27;;;1.65;;
65717;SDS011;52445;52.466;-1.016;2023-12-22T00:51:55;10.45;;;0.95;;
65717;SDS011;52445;52.466;-1.016;2023-12-22T00:54:23;13.77;;;2.00;;
65717;SDS011;52445;52.466;-1.016;2023-12-22T00:56:51;10.82;;;1.40;;
65717;SDS011;52445;52.466;-1.016;2023-12-22T00:59:17;10.32;;;1.67;;
65717;SDS011;52445;52.466;-1.016;2023-12-22T01:01:45;9.52;;;1.55;;
65717;SDS011;52445;52.466;-1.016;2023-12-22T01:04:12;10.75;;;1.60;;
65717;SDS011;52445;52.466;-1.016;2023-12-22T01:06:39;8.05;;;1.40;;
65717;SDS011;52445;52.466;-1.016;2023-12-22T01:09:06;6.22;;;2.05;;
65717;SDS011;52445;52.466;-1.016;2023-12-22T01:11:35;3.47;;;0.70;;
65717;SDS011;52445;52.466;-1.016;2023-12-22T01:14:05;7.95;;;1.13;;
65717;SDS011;52445;52.466;-1.016;2023-12-22T01:16:33;11.45;;;1.85;;
65717;SDS011;52445;52.466;-1.016;2023-12-22T01:19:00;7.78;;;1.60;;
65717;SDS011;52445;52.466;-1.016;2023-12-22T01:21:27;6.85;;;1.52;;
65717;SDS011;52445;52.466;-1.016;2023-12-22T01:23:55;9.07;;;1.30;;
65717;SDS011;52445;52.466;-1.016;2023-12-22T01:26:22;12.55;;;1.27;;
65717;SDS011;52445;52.466;-1.016;2023-12-22T01:28:49;10.27;;;1.42;;
65717;SDS011;52445;52.466;-1.016;2023-12-22T01:31:17;4.30;;;1.48;;
65717;SDS011;52445;52.466;-1.016;2023-12-22T01:33:46;8.85;;;1.35;;
65717;SDS011;52445;52.466;-1.016;2023-12-22T01:36:13;14.15;;;1.23;;
65717;SDS011;52445;52.466;-1.016;2023-12-22T01:38:41;8.05;;;1.00;;
65717;SDS011;52445;52.466;-1.016;2023-12-22T01:41:08;8.90;;;1.30;;
65717;SDS011;52445;52.466;-1.016;2023-12-22T01:43:35;6.80;;;1.23;;
65717;SDS011;52445;52.466;-1.016;2023-12-22T01:46:03;5.95;;;0.80;;
65717;SDS011;52445;52.466;-1.016;2023-12-22T01:48:32;2.42;;;0.55;;
65717;SDS011;52445;52.466;-1.016;2023-12-22T01:51:00;2.75;;;0.80;;
65717;SDS011;52445;52.466;-1.016;2023-12-22T01:53:28;4.88;;;1.02;;
65717;SDS011;52445;52.466;-1.016;2023-12-22T01:55:57;2.63;;;1.08;;
65717;SDS011;52445;52.466;-1.016;2023-12-22T01:58:26;3.40;;;0.50;;
65717;SDS011;52445;52.466;-1.016;2023-12-22T02:00:56;3.22;;;0.90;;
65717;SDS011;52445;52.466;-1.016;2023-12-22T02:03:24;2.92;;;0.65;;
65717;SDS011;52445;52.466;-1.016;2023-12-22T02:05:53;2.70;;;0.57;;
65717;SDS011;52445;52.466;-1.016;2023-12-22T02:08:20;2.45;;;0.40;;
65717;SDS011;52445;52.466;-1.016;2023-12-22T02:10:50;1.85;;;1.02;;
65717;SDS011;52445;52.466;-1.016;2023-12-22T02:13:16;5.07;;;0.93;;
65717;SDS011;52445;52.466;-1.016;2023-12-22T02:15:43;6.03;;;1.05;;
65717;SDS011;52445;52.466;-1.016;2023-12-22T02:18:14;3.47;;;0.90;;
65717;SDS011;52445;52.466;-1.016;2023-12-22T02:20:44;6.55;;;0.95;;
65717;SDS011;52445;52.466;-1.016;2023-12-22T02:23:12;1.83;;;0.65;;
65717;SDS011;52445;52.466;-1.016;2023-12-22T02:25:39;4.75;;;0.70;;
65717;SDS011;52445;52.466;-1.016;2023-12-22T02:28:07;6.40;;;1.02;;
65717;SDS011;52445;52.466;-1.016;2023-12-22T02:31:03;4.07;;;0.65;;
65717;SDS011;52445;52.466;-1.016;2023-12-22T02:33:30;4.47;;;0.85;;
65717;SDS011;52445;52.466;-1.016;2023-12-22T02:35:58;4.43;;;0.80;;
65717;SDS011;52445;52.466;-1.016;2023-12-22T02:38:30;3.63;;;0.82;;
65717;SDS011;52445;52.466;-1.016;2023-12-22T02:40:57;1.40;;;0.38;;
65717;SDS011;52445;52.466;-1.016;2023-12-22T02:43:25;2.10;;;0.80;;
65717;SDS011;52445;52.466;-1.016;2023-12-22T02:45:53;2.38;;;1.40;;
65717;SDS011;52445;52.466;-1.016;2023-12-22T02:48:20;2.85;;;0.80;;
65717;SDS011;52445;52.466;-1.016;2023-12-22T02:50:46;0.95;;;0.50;;
65717;SDS011;52445;52.466;-1.016;2023-12-22T02:53:13;0.65;;;0.32;;
65717;SDS011;52445;52.466;-1.016;2023-12-22T02:55:40;1.52;;;0.70;;
65717;SDS011;52445;52.466;-1.016;2023-12-22T02:58:06;1.58;;;0.30;;
65717;SDS011;52445;52.466;-1.016;2023-12-22T03:00:33;1.17;;;0.40;;
65717;SDS011;52445;52.466;-1.016;2023-12-22T03:03:00;1.67;;;0.98;;
65717;SDS011;52445;52.466;-1.016;2023-12-22T03:05:26;0.88;;;0.63;;
65717;SDS011;52445;52.466;-1.016;2023-12-22T03:07:53;1.08;;;0.80;;
65717;SDS011;52445;52.466;-1.016;2023-12-22T03:10:20;1.70;;;0.40;;
65717;SDS011;52445;52.466;-1.016;2023-12-22T03:12:46;2.35;;;0.70;;
65717;SDS011;52445;52.466;-1.016;2023-12-22T03:15:13;2.55;;;0.22;;
65717;SDS011;52445;52.466;-1.016;2023-12-22T03:17:40;0.60;;;0.50;;
65717;SDS011;52445;52.466;-1.016;2023-12-22T03:20:07;0.45;;;0.28;;
65717;SDS011;52445;52.466;-1.016;2023-12-22T03:22:34;1.13;;;0.52;;
65717;SDS011;52445;52.466;-1.016;2023-12-22T03:25:01;1.20;;;0.65;;
65717;SDS011;52445;52.466;-1.016;2023-12-22T03:27:27;0.82;;;0.60;;
65717;SDS011;52445;52.466;-1.016;2023-12-22T03:29:54;1.20;;;0.43;;
65717;SDS011;52445;52.466;-1.016;2023-12-22T03:32:21;0.77;;;0.52;;
65717;SDS011;52445;52.466;-1.016;2023-12-22T03:34:47;1.65;;;0.77;;
65717;SDS011;52445;52.466;-1.016;2023-12-22T03:37:14;0.85;;;0.52;;
65717;SDS011;52445;52.466;-1.016;2023-12-22T03:39:41;0.65;;;0.43;;
65717;SDS011;52445;52.466;-1.016;2023-12-22T03:42:07;1.35;;;0.40;;
65717;SDS011;52445;52.466;-1.016;2023-12-22T03:44:34;1.20;;;0.57;;
65717;SDS011;52445;52.466;-1.016;2023-12-22T03:47:01;0.82;;;0.75;;
65717;SDS011;52445;52.466;-1.016;2023-12-22T03:49:27;4.07;;;0.77;;
65717;SDS011;52445;52.466;-1.016;2023-12-22T03:51:54;1.00;;;0.60;;
65717;SDS011;52445;52.466;-1.016;2023-12-22T03:54:21;0.73;;;0.40;;
65717;SDS011;52445;52.466;-1.016;2023-12-22T03:56:47;1.63;;;0.70;;
65717;SDS011;52445;52.466;-1.016;2023-12-22T03:59:14;0.73;;;0.50;;
65717;SDS011;52445;52.466;-1.016;2023-12-22T04:01:41;3.38;;;1.17;;
65717;SDS011;52445;52.466;-1.016;2023-12-22T04:04:08;1.52;;;0.68;;
65717;SDS011;52445;52.466;-1.016;2023-12-22T04:06:38;0.90;;;0.70;;
65717;SDS011;52445;52.466;-1.016;2023-12-22T04:09:06;2.67;;;1.08;;
65717;SDS011;52445;52.466;-1.016;2023-12-22T04:11:32;1.23;;;0.77;;
65717;SDS011;52445;52.466;-1.016;2023-12-22T04:14:05;0.80;;;0.40;;
65717;SDS011;52445;52.466;-1.016;2023-12-22T04:16:32;1.50;;;0.75;;
65717;SDS011;52445;52.466;-1.016;2023-12-22T04:18:59;1.60;;;0.68;;
65717;SDS011;52445;52.466;-1.016;2023-12-22T04:21:26;1.40;;;0.50;;
65717;SDS011;52445;52.466;-1.016;2023-12-22T04:23:52;2.50;;;0.55;;
65717;SDS011;52445;52.466;-1.016;2023-12-22T04:26:19;0.85;;;0.60;;
65717;SDS011;52445;52.466;-1.016;2023-12-22T04:28:46;1.65;;;0.52;;
65717;SDS011;52445;52.466;-1.016;2023-12-22T04:31:12;0.63;;;0.45;;
65717;SDS011;52445;52.466;-1.016;2023-12-22T04:33:40;2.15;;;0.40;;
65717;SDS011;52445;52.466;-1.016;2023-12-22T04:36:06;0.30;;;0.30;;
65717;SDS011;52445;52.466;-1.016;2023-12-22T04:38:34;1.17;;;0.30;;
65717;SDS011;52445;52.466;-1.016;2023-12-22T04:41:01;1.45;;;0.60;;
65717;SDS011;52445;52.466;-1.016;2023-12-22T04:43:29;1.58;;;0.50;;
65717;SDS011;52445;52.466;-1.016;2023-12-22T04:45:57;0.30;;;0.30;;
65717;SDS011;52445;52.466;-1.016;2023-12-22T04:48:24;1.20;;;0.30;;
65717;SDS011;52445;52.466;-1.016;2023-12-22T04:50:51;3.03;;;0.80;;
65717;SDS011;52445;52.466;-1.016;2023-12-22T04:53:17;1.58;;;0.77;;
65717;SDS011;52445;52.466;-1.016;2023-12-22T04:55:44;0.60;;;0.60;;
65717;SDS011;52445;52.466;-1.016;2023-12-22T04:58:11;0.70;;;0.60;;
65717;SDS011;52445;52.466;-1.016;2023-12-22T05:00:38;0.68;;;0.68;;
65717;SDS011;52445;52.466;-1.016;2023-12-22T05:03:04;0.95;;;0.40;;
65717;SDS011;52445;52.466;-1.016;2023-12-22T05:05:31;1.38;;;0.70;;
65717;SDS011;52445;52.466;-1.016;2023-12-22T05:07:58;0.45;;;0.45;;
65717;SDS011;52445;52.466;-1.016;2023-12-22T05:10:27;0.73;;;0.20;;
65717;SDS011;52445;52.466;-1.016;2023-12-22T05:12:53;0.40;;;0.40;;
65717;SDS011;52445;52.466;-1.016;2023-12-22T05:15:20;1.20;;;0.50;;
65717;SDS011;52445;52.466;-1.016;2023-12-22T05:17:47;0.68;;;0.20;;
65717;SDS011;52445;52.466;-1.016;2023-12-22T05:20:14;1.58;;;0.30;;
65717;SDS011;52445;52.466;-1.016;2023-12-22T05:22:41;0.35;;;0.35;;
65717;SDS011;52445;52.466;-1.016;2023-12-22T05:25:08;2.17;;;0.75;;
65717;SDS011;52445;52.466;-1.016;2023-12-22T05:27:36;1.13;;;0.88;;
65717;SDS011;52445;52.466;-1.016;2023-12-22T05:30:03;0.68;;;0.32;;
65717;SDS011;52445;52.466;-1.016;2023-12-22T05:32:31;1.05;;;1.00;;
65717;SDS011;52445;52.466;-1.016;2023-12-22T05:34:58;0.82;;;0.50;;
65717;SDS011;52445;52.466;-1.016;2023-12-22T05:37:25;2.25;;;0.30;;
65717;SDS011;52445;52.466;-1.016;2023-12-22T05:39:52;0.98;;;0.63;;
65717;SDS011;52445;52.466;-1.016;2023-12-22T05:42:19;0.85;;;0.50;;
65717;SDS011;52445;52.466;-1.016;2023-12-22T05:44:46;1.10;;;1.10;;
65717;SDS011;52445;52.466;-1.016;2023-12-22T05:47:16;0.43;;;0.43;;
65717;SDS011;52445;52.466;-1.016;2023-12-22T05:49:43;0.70;;;0.70;;
65717;SDS011;52445;52.466;-1.016;2023-12-22T05:52:11;1.48;;;0.45;;
65717;SDS011;52445;52.466;-1.016;2023-12-22T05:54:38;0.60;;;0.60;;
65717;SDS011;52445;52.466;-1.016;2023-12-22T05:57:05;0.65;;;0.40;;
65717;SDS011;52445;52.466;-1.016;2023-12-22T05:59:33;0.40;;;0.40;;
65717;SDS011;52445;52.466;-1.016;2023-12-22T06:02:01;0.82;;;0.82;;
65717;SDS011;52445;52.466;-1.016;2023-12-22T06:04:29;0.82;;;0.40;;
65717;SDS011;52445;52.466;-1.016;2023-12-22T06:06:56;0.80;;;0.50;;
65717;SDS011;52445;52.466;-1.016;2023-12-22T06:09:23;0.45;;;0.45;;
65717;SDS011;52445;52.466;-1.016;2023-12-22T06:11:50;0.40;;;0.20;;
65717;SDS011;52445;52.466;-1.016;2023-12-22T06:14:18;2.63;;;0.40;;
65717;SDS011;52445;52.466;-1.016;2023-12-22T06:16:45;0.73;;;0.73;;
65717;SDS011;52445;52.466;-1.016;2023-12-22T06:19:12;1.15;;;0.20;;
65717;SDS011;52445;52.466;-1.016;2023-12-22T06:21:39;0.40;;;0.40;;
65717;SDS011;52445;52.466;-1.016;2023-12-22T06:24:10;0.47;;;0.30;;
65717;SDS011;52445;52.466;-1.016;2023-12-22T06:26:37;0.60;;;0.47;;
65717;SDS011;52445;52.466;-1.016;2023-12-22T06:29:04;0.35;;;0.35;;
65717;SDS011;52445;52.466;-1.016;2023-12-22T06:31:30;0.40;;;0.40;;
65717;SDS011;52445;52.466;-1.016;2023-12-22T06:33:57;0.60;;;0.60;;
65717;SDS011;52445;52.466;-1.016;2023-12-22T06:36:29;0.43;;;0.40;;
65717;SDS011;52445;52.466;-1.016;2023-12-22T06:38:56;1.02;;;0.45;;
65717;SDS011;52445;52.466;-1.016;2023-12-22T06:41:25;0.57;;;0.57;;
65717;SDS011;52445;52.466;-1.016;2023-12-22T06:43:54;1.90;;;0.50;;
65717;SDS011;52445;52.466;-1.016;2023-12-22T06:46:22;1.20;;;0.70;;
65717;SDS011;52445;52.466;-1.016;2023-12-22T06:48:52;2.05;;;0.73;;
65717;SDS011;52445;52.466;-1.016;2023-12-22T06:51:20;0.25;;;0.25;;
65717;SDS011;52445;52.466;-1.016;2023-12-22T06:53:48;1.02;;;0.30;;
65717;SDS011;52445;52.466;-1.016;2023-12-22T06:56:18;0.32;;;0.32;;
65717;SDS011;52445;52.466;-1.016;2023-12-22T06:58:47;0.73;;;0.73;;
65717;SDS011;52445;52.466;-1.016;2023-12-22T07:03:56;2.03;;;1.02;;
65717;SDS011;52445;52.466;-1.016;2023-12-22T07:06:24;1.55;;;1.52;;
65717;SDS011;52445;52.466;-1.016;2023-12-22T07:11:34;0.90;;;0.43;;
65717;SDS011;52445;52.466;-1.016;2023-12-22T07:14:03;0.88;;;0.88;;
65717;SDS011;52445;52.466;-1.016;2023-12-22T07:16:30;0.75;;;0.47;;
65717;SDS011;52445;52.466;-1.016;2023-12-22T07:18:58;0.68;;;0.63;;
65717;SDS011;52445;52.466;-1.016;2023-12-22T07:21:25;0.70;;;0.68;;
65717;SDS011;52445;52.466;-1.016;2023-12-22T07:23:52;1.10;;;0.70;;
65717;SDS011;52445;52.466;-1.016;2023-12-22T07:26:19;2.58;;;1.13;;
65717;SDS011;52445;52.466;-1.016;2023-12-22T07:28:47;0.77;;;0.73;;
65717;SDS011;52445;52.466;-1.016;2023-12-22T07:31:18;1.88;;;0.68;;
65717;SDS011;52445;52.466;-1.016;2023-12-22T07:33:45;2.25;;;1.30;;
65717;SDS011;52445;52.466;-1.016;2023-12-22T07:36:14;1.70;;;0.63;;
65717;SDS011;52445;52.466;-1.016;2023-12-22T07:38:42;1.05;;;1.05;;
65717;SDS011;52445;52.466;-1.016;2023-12-22T07:41:08;0.43;;;0.35;;
65717;SDS011;52445;52.466;-1.016;2023-12-22T07:43:39;0.82;;;0.80;;
65717;SDS011;52445;52.466;-1.016;2023-12-22T07:46:06;1.27;;;0.68;;
65717;SDS011;52445;52.466;-1.016;2023-12-22T07:48:36;3.42;;;1.25;;
65717;SDS011;52445;52.466;-1.016;2023-12-22T07:51:03;0.28;;;0.28;;
65717;SDS011;52445;52.466;-1.016;2023-12-22T07:53:30;4.70;;;1.05;;
65717;SDS011;52445;52.466;-1.016;2023-12-22T07:55:56;1.55;;;0.40;;
65717;SDS011;52445;52.466;-1.016;2023-12-22T07:58:25;1.65;;;0.20;;
65717;SDS011;52445;52.466;-1.016;2023-12-22T08:00:52;1.92;;;0.82;;
65717;SDS011;52445;52.466;-1.016;2023-12-22T08:03:18;0.57;;;0.40;;
65717;SDS011;52445;52.466;-1.016;2023-12-22T08:05:45;1.35;;;0.30;;
65717;SDS011;52445;52.466;-1.016;2023-12-22T08:08:13;1.23;;;0.65;;
65717;SDS011;52445;52.466;-1.016;2023-12-22T08:10:40;1.42;;;0.55;;
65717;SDS011;52445;52.466;-1.016;2023-12-22T08:13:06;1.30;;;0.60;;
65717;SDS011;52445;52.466;-1.016;2023-12-22T08:15:33;1.20;;;0.60;;
65717;SDS011;52445;52.466;-1.016;2023-12-22T08:18:02;2.15;;;0.80;;
65717;SDS011;52445;52.466;-1.016;2023-12-22T08:20:31;0.98;;;0.55;;
65717;SDS011;52445;52.466;-1.016;2023-12-22T08:23:03;0.45;;;0.32;;
65717;SDS011;52445;52.466;-1.016;2023-12-22T08:25:35;1.45;;;0.75;;
65717;SDS011;52445;52.466;-1.016;2023-12-22T08:28:02;0.50;;;0.40;;
65717;SDS011;52445;52.466;-1.016;2023-12-22T08:30:30;0.60;;;0.47;;
65717;SDS011;52445;52.466;-1.016;2023-12-22T08:32:56;1.70;;;0.43;;
65717;SDS011;52445;52.466;-1.016;2023-12-22T08:35:24;3.65;;;0.73;;
65717;SDS011;52445;52.466;-1.016;2023-12-22T08:37:51;2.22;;;0.90;;
65717;SDS011;52445;52.466;-1.016;2023-12-22T08:40:18;3.08;;;0.65;;
65717;SDS011;52445;52.466;-1.016;2023-12-22T08:42:52;1.92;;;0.50;;
65717;SDS011;52445;52.466;-1.016;2023-12-22T08:45:27;2.00;;;0.57;;
65717;SDS011;52445;52.466;-1.016;2023-12-22T08:47:56;1.70;;;0.90;;
65717;SDS011;52445;52.466;-1.016;2023-12-22T08:50:24;1.70;;;1.60;;
65717;SDS011;52445;52.466;-1.016;2023-12-22T08:52:50;1.58;;;0.75;;
65717;SDS011;52445;52.466;-1.016;2023-12-22T08:55:17;1.00;;;0.70;;
65717;SDS011;52445;52.466;-1.016;2023-12-22T08:57:45;2.20;;;0.50;;
65717;SDS011;52445;52.466;-1.016;2023-12-22T09:00:22;0.90;;;0.90;;
65717;SDS011;52445;52.466;-1.016;2023-12-22T09:02:50;1.88;;;1.00;;
65717;SDS011;52445;52.466;-1.016;2023-12-22T09:05:17;0.90;;;0.63;;
65717;SDS011;52445;52.466;-1.016;2023-12-22T09:07:46;2.75;;;0.60;;
65717;SDS011;52445;52.466;-1.016;2023-12-22T09:10:13;0.65;;;0.60;;
65717;SDS011;52445;52.466;-1.016;2023-12-22T09:12:40;1.02;;;0.52;;
65717;SDS011;52445;52.466;-1.016;2023-12-22T09:15:06;1.02;;;0.55;;
65717;SDS011;52445;52.466;-1.016;2023-12-22T09:17:33;0.80;;;0.70;;
65717;SDS011;52445;52.466;-1.016;2023-12-22T09:20:02;2.33;;;0.55;;
65717;SDS011;52445;52.466;-1.016;2023-12-22T09:22:29;0.98;;;0.55;;
65717;SDS011;52445;52.466;-1.016;2023-12-22T09:24:55;3.63;;;0.82;;
65717;SDS011;52445;52.466;-1.016;2023-12-22T09:27:22;1.30;;;0.88;;
65717;SDS011;52445;52.466;-1.016;2023-12-22T09:29:49;3.47;;;0.40;;
65717;SDS011;52445;52.466;-1.016;2023-12-22T09:32:17;1.65;;;0.65;;
65717;SDS011;52445;52.466;-1.016;2023-12-22T09:34:43;1.63;;;0.93;;
65717;SDS011;52445;52.466;-1.016;2023-12-22T09:37:10;1.75;;;0.52;;
65717;SDS011;52445;52.466;-1.016;2023-12-22T09:39:37;1.10;;;1.00;;
65717;SDS011;52445;52.466;-1.016;2023-12-22T09:42:04;0.55;;;0.55;;
65717;SDS011;52445;52.466;-1.016;2023-12-22T09:44:32;2.17;;;0.65;;
65717;SDS011;52445;52.466;-1.016;2023-12-22T09:47:00;1.60;;;0.40;;
65717;SDS011;52445;52.466;-1.016;2023-12-22T09:51:57;1.52;;;0.85;;
65717;SDS011;52445;52.466;-1.016;2023-12-22T09:54:25;1.48;;;0.73;;
65717;SDS011;52445;52.466;-1.016;2023-12-22T09:56:53;2.97;;;1.55;;
65717;SDS011;52445;52.466;-1.016;2023-12-22T09:59:20;3.72;;;1.83;;
65717;SDS011;52445;52.466;-1.016;2023-12-22T10:01:48;2.30;;;1.15;;
65717;SDS011;52445;52.466;-1.016;2023-12-22T10:04:19;3.50;;;0.90;;
65717;SDS011;52445;52.466;-1.016;2023-12-22T10:06:47;3.65;;;1.38;;
65717;SDS011;52445;52.466;-1.016;2023-12-22T10:09:16;1.67;;;0.55;;
65717;SDS011;52445;52.466;-1.016;2023-12-22T10:11:44;1.10;;;0.63;;
65717;SDS011;52445;52.466;-1.016;2023-12-22T10:14:23;3.70;;;1.15;;
65717;SDS011;52445;52.466;-1.016;2023-12-22T10:16:52;2.17;;;0.52;;
65717;SDS011;52445;52.466;-1.016;2023-12-22T10:19:19;2.05;;;0.93;;
65717;SDS011;52445;52.466;-1.016;2023-12-22T10:21:48;1.70;;;0.85;;
65717;SDS011;52445;52.466;-1.016;2023-12-22T10:27:13;1.48;;;0.73;;
65717;SDS011;52445;52.466;-1.016;2023-12-22T10:29:41;1.90;;;0.65;;
65717;SDS011;52445;52.466;-1.016;2023-12-22T10:32:08;1.95;;;1.35;;
65717;SDS011;52445;52.466;-1.016;2023-12-22T10:34:35;2.22;;;2.05;;
65717;SDS011;52445;52.466;-1.016;2023-12-22T10:37:02;2.58;;;0.95;;
65717;SDS011;52445;52.466;-1.016;2023-12-22T10:39:30;0.90;;;0.90;;
65717;SDS011;52445;52.466;-1.016;2023-12-22T10:41:58;1.73;;;0.95;;
65717;SDS011;52445;52.466;-1.016;2023-12-22T10:44:26;1.35;;;1.25;;
65717;SDS011;52445;52.466;-1.016;2023-12-22T10:46:54;4.07;;;1.23;;
65717;SDS011;52445;52.466;-1.016;2023-12-22T10:49:22;1.60;;;1.02;;
65717;SDS011;52445;52.466;-1.016;2023-12-22T10:51:49;1.10;;;0.90;;
65717;SDS011;52445;52.466;-1.016;2023-12-22T10:54:17;2.90;;;0.73;;
65717;SDS011;52445;52.466;-1.016;2023-12-22T10:56:44;2.63;;;0.90;;
65717;SDS011;52445;52.466;-1.016;2023-12-22T10:59:11;1.58;;;1.02;;
65717;SDS011;52445;52.466;-1.016;2023-12-22T11:01:38;2.13;;;0.88;;
65717;SDS011;52445;52.466;-1.016;2023-12-22T11:04:06;1.10;;;0.93;;
65717;SDS011;52445;52.466;-1.016;2023-12-22T11:06:37;1.85;;;0.82;;
65717;SDS011;52445;52.466;-1.016;2023-12-22T11:09:06;0.73;;;0.50;;
65717;SDS011;52445;52.466;-1.016;2023-12-22T11:11:37;1.95;;;0.85;;
65717;SDS011;52445;52.466;-1.016;2023-12-22T11:14:05;1.13;;;0.70;;
65717;SDS011;52445;52.466;-1.016;2023-12-22T11:16:34;0.30;;;0.22;;
65717;SDS011;52445;52.466;-1.016;2023-12-22T11:19:02;0.82;;;0.82;;
65717;SDS011;52445;52.466;-1.016;2023-12-22T11:21:30;1.83;;;0.40;;
65717;SDS011;52445;52.466;-1.016;2023-12-22T11:23:57;1.63;;;0.55;;
65717;SDS011;52445;52.466;-1.016;2023-12-22T11:26:24;0.88;;;0.80;;
65717;SDS011;52445;52.466;-1.016;2023-12-22T11:28:51;0.88;;;0.88;;
65717;SDS011;52445;52.466;-1.016;2023-12-22T11:31:21;0.57;;;0.20;;
65717;SDS011;52445;52.466;-1.016;2023-12-22T11:33:53;1.00;;;0.82;;
65717;SDS011;52445;52.466;-1.016;2023-12-22T11:36:35;0.75;;;0.73;;
65717;SDS011;52445;52.466;-1.016;2023-12-22T11:39:03;1.08;;;0.80;;
65717;SDS011;52445;52.466;-1.016;2023-12-22T11:41:31;2.88;;;0.60;;
65717;SDS011;52445;52.466;-1.016;2023-12-22T11:44:00;1.75;;;0.73;;
65717;SDS011;52445;52.466;-1.016;2023-12-22T11:46:30;2.15;;;0.68;;
65717;SDS011;52445;52.466;-1.016;2023-12-22T11:48:56;0.60;;;0.60;;
65717;SDS011;52445;52.466;-1.016;2023-12-22T11:51:23;0.90;;;0.88;;
65717;SDS011;52445;52.466;-1.016;2023-12-22T11:54:01;1.27;;;0.68;;
65717;SDS011;52445;52.466;-1.016;2023-12-22T11:56:28;1.08;;;0.30;;
65717;SDS011;52445;52.466;-1.016;2023-12-22T11:58:56;3.15;;;1.58;;
65717;SDS011;52445;52.466;-1.016;2023-12-22T12:01:26;1.00;;;0.75;;
65717;SDS011;52445;52.466;-1.016;2023-12-22T12:03:57;0.98;;;0.98;;
65717;SDS011;52445;52.466;-1.016;2023-12-22T12:09:04;0.28;;;0.20;;
65717;SDS011;52445;52.466;-1.016;2023-12-22T12:14:31;1.00;;;0.40;;
65717;SDS011;52445;52.466;-1.016;2023-12-22T12:17:07;1.45;;;0.45;;
65717;SDS011;52445;52.466;-1.016;2023-12-22T12:19:37;1.45;;;0.45;;
65717;SDS011;52445;52.466;-1.016;2023-12-22T12:22:06;1.00;;;0.30;;
65717;SDS011;52445;52.466;-1.016;2023-12-22T12:24:35;1.67;;;1.58;;
65717;SDS011;52445;52.466;-1.016;2023-12-22T12:27:02;0.88;;;0.85;;
65717;SDS011;52445;52.466;-1.016;2023-12-22T12:29:30;1.63;;;0.50;;
65717;SDS011;52445;52.466;-1.016;2023-12-22T12:32:05;0.60;;;0.50;;
65717;SDS011;52445;52.466;-1.016;2023-12-22T12:34:32;3.97;;;1.05;;
65717;SDS011;52445;52.466;-1.016;2023-12-22T12:37:00;0.80;;;0.35;;
65717;SDS011;52445;52.466;-1.016;2023-12-22T12:39:29;2.40;;;0.80;;
65717;SDS011;52445;52.466;-1.016;2023-12-22T12:41:59;2.75;;;0.73;;
65717;SDS011;52445;52.466;-1.016;2023-12-22T12:44:26;1.45;;;0.93;;
65717;SDS011;52445;52.466;-1.016;2023-12-22T12:46:55;1.15;;;0.57;;
65717;SDS011;52445;52.466;-1.016;2023-12-22T12:49:22;1.42;;;0.47;;
65717;SDS011;52445;52.466;-1.016;2023-12-22T12:51:53;1.23;;;0.47;;
65717;SDS011;52445;52.466;-1.016;2023-12-22T12:54:20;2.95;;;0.73;;
65717;SDS011;52445;52.466;-1.016;2023-12-22T12:56:47;2.22;;;0.80;;
65717;SDS011;52445;52.466;-1.016;2023-12-22T12:59:15;5.60;;;0.82;;
65717;SDS011;52445;52.466;-1.016;2023-12-22T13:01:45;0.55;;;0.55;;
65717;SDS011;52445;52.466;-1.016;2023-12-22T13:04:14;1.83;;;0.65;;
65717;SDS011;52445;52.466;-1.016;2023-12-22T13:06:44;0.85;;;0.70;;
65717;SDS011;52445;52.466;-1.016;2023-12-22T13:09:11;1.73;;;0.57;;
65717;SDS011;52445;52.466;-1.016;2023-12-22T13:11:40;1.00;;;0.93;;
65717;SDS011;52445;52.466;-1.016;2023-12-22T13:14:10;0.85;;;0.75;;
65717;SDS011;52445;52.466;-1.016;2023-12-22T13:16:37;2.33;;;0.57;;
65717;SDS011;52445;52.466;-1.016;2023-12-22T13:19:05;0.98;;;0.70;;
65717;SDS011;52445;52.466;-1.016;2023-12-22T13:21:32;0.93;;;0.93;;
65717;SDS011;52445;52.466;-1.016;2023-12-22T13:24:07;0.60;;;0.60;;
65717;SDS011;52445;52.466;-1.016;2023-12-22T13:26:35;1.00;;;0.70;;
65717;SDS011;52445;52.466;-1.016;2023-12-22T13:29:02;2.05;;;0.80;;
65717;SDS011;52445;52.466;-1.016;2023-12-22T13:31:31;4.55;;;0.82;;
65717;SDS011;52445;52.466;-1.016;2023-12-22T13:33:58;1.63;;;0.82;;
65717;SDS011;52445;52.466;-1.016;2023-12-22T13:36:26;1.48;;;0.65;;
65717;SDS011;52445;52.466;-1.016;2023-12-22T13:38:53;1.95;;;0.47;;
65717;SDS011;52445;52.466;-1.016;2023-12-22T13:41:20;1.85;;;0.20;;
65717;SDS011;52445;52.466;-1.016;2023-12-22T13:43:47;0.95;;;0.65;;
65717;SDS011;52445;52.466;-1.016;2023-12-22T13:46:14;1.75;;;0.63;;
65717;SDS011;52445;52.466;-1.016;2023-12-22T13:48:40;1.02;;;0.55;;
65717;SDS011;52445;52.466;-1.016;2023-12-22T13:51:07;2.30;;;1.70;;
65717;SDS011;52445;52.466;-1.016;2023-12-22T13:53:35;2.92;;;0.38;;
65717;SDS011;52445;52.466;-1.016;2023-12-22T13:56:12;1.85;;;0.68;;
65717;SDS011;52445;52.466;-1.016;2023-12-22T13:58:43;3.42;;;0.52;;
65717;SDS011;52445;52.466;-1.016;2023-12-22T14:01:14;1.35;;;0.55;;
65717;SDS011;52445;52.466;-1.016;2023-12-22T14:03:43;4.03;;;1.02;;
65717;SDS011;52445;52.466;-1.016;2023-12-22T14:06:12;1.85;;;1.23;;
65717;SDS011;52445;52.466;-1.016;2023-12-22T14:08:39;0.70;;;0.50;;
65717;SDS011;52445;52.466;-1.016;2023-12-22T14:11:08;1.02;;;0.93;;
65717;SDS011;52445;52.466;-1.016;2023-12-22T14:13:36;1.30;;;0.98;;
65717;SDS011;52445;52.466;-1.016;2023-12-22T14:16:06;0.95;;;0.70;;
65717;SDS011;52445;52.466;-1.016;2023-12-22T14:18:33;1.38;;;0.65;;
65717;SDS011;52445;52.466;-1.016;2023-12-22T14:21:01;1.85;;;1.02;;
65717;SDS011;52445;52.466;-1.016;2023-12-22T14:23:27;0.65;;;0.60;;
65717;SDS011;52445;52.466;-1.016;2023-12-22T14:25:54;1.30;;;0.47;;
65717;SDS011;52445;52.466;-1.016;2023-12-22T14:28:21;1.58;;;0.50;;
65717;SDS011;52445;52.466;-1.016;2023-12-22T14:30:47;1.25;;;0.43;;
65717;SDS011;52445;52.466;-1.016;2023-12-22T14:33:14;2.10;;;0.60;;
65717;SDS011;52445;52.466;-1.016;2023-12-22T14:35:41;1.30;;;0.90;;
65717;SDS011;52445;52.466;-1.016;2023-12-22T14:38:08;1.50;;;0.40;;
65717;SDS011;52445;52.466;-1.016;2023-12-22T14:40:35;0.93;;;0.47;;
65717;SDS011;52445;52.466;-1.016;2023-12-22T14:43:02;4.20;;;0.95;;
65717;SDS011;52445;52.466;-1.016;2023-12-22T14:45:29;1.48;;;1.02;;
65717;SDS011;52445;52.466;-1.016;2023-12-22T14:47:57;0.77;;;0.65;;
65717;SDS011;52445;52.466;-1.016;2023-12-22T14:50:24;1.50;;;0.60;;
65717;SDS011;52445;52.466;-1.016;2023-12-22T14:52:51;2.20;;;0.98;;